sensor_id;sensor_type;location;lat;lon;timestamp;pressure;altitude;pressure_sealevel;temperature;humidity
61554;BME280;47425;51.976;5.326;2023-03-25T00:01:34;99976.38;;;16.64;48.09
61554;BME280;47425;51.976;5.326;2023-03-25T00:04:03;100001.78;;;16.66;47.81
61554;BME280;47425;51.976;5.326;2023-03-25T00:06:30;99984.59;;;16.59;47.83
61554;BME280;47425;51.976;5.326;2023-03-25T00:08:59;99991.00;;;16.55;47.44
61554;BME280;47425;51.976;5.326;2023-03-25T00:11:26;99996.03;;;16.43;48.03
61554;BME280;47425;51.976;5.326;2023-03-25T00:13:53;99985.66;;;16.40;48.12
61554;BME280;47425;51.976;5.326;2023-03-25T00:16:19;99981.22;;;16.41;48.30
61554;BME280;47425;51.976;5.326;2023-03-25T00:18:47;99977.19;;;16.50;48.51
61554;BME280;47425;51.976;5.326;2023-03-25T00:21:15;99979.41;;;16.57;47.93
61554;BME280;47425;51.976;5.326;2023-03-25T00:23:43;99984.34;;;16.48;47.36
61554;BME280;47425;51.976;5.326;2023-03-25T00:26:09;99972.63;;;16.37;48.50
61554;BME280;47425;51.976;5.326;2023-03-25T00:28:37;99981.41;;;16.38;48.28
61554;BME280;47425;51.976;5.326;2023-03-25T00:31:05;99968.78;;;16.43;48.13
61554;BME280;47425;51.976;5.326;2023-03-25T00:33:32;99971.56;;;16.56;47.76
61554;BME280;47425;51.976;5.326;2023-03-25T00:36:00;99972.00;;;16.48;47.96
61554;BME280;47425;51.976;5.326;2023-03-25T00:38:30;99975.69;;;16.46;47.68
61554;BME280;47425;51.976;5.326;2023-03-25T00:41:12;99968.59;;;16.46;47.91
61554;BME280;47425;51.976;5.326;2023-03-25T00:43:41;99979.00;;;16.49;48.04
61554;BME280;47425;51.976;5.326;2023-03-25T00:46:10;99962.81;;;16.39;47.82
61554;BME280;47425;51.976;5.326;2023-03-25T00:48:36;99964.34;;;16.43;47.76
61554;BME280;47425;51.976;5.326;2023-03-25T00:51:03;99967.75;;;16.46;47.58
61554;BME280;47425;51.976;5.326;2023-03-25T00:53:34;99973.75;;;16.33;48.04
61554;BME280;47425;51.976;5.326;2023-03-25T00:56:02;99966.00;;;16.30;47.89
61554;BME280;47425;51.976;5.326;2023-03-25T00:58:29;99980.25;;;16.27;48.04
61554;BME280;47425;51.976;5.326;2023-03-25T01:00:56;99959.88;;;16.30;48.13
61554;BME280;47425;51.976;5.326;2023-03-25T01:03:37;99962.38;;;16.47;47.72
61554;BME280;47425;51.976;5.326;2023-03-25T01:06:08;99968.72;;;16.59;47.28
61554;BME280;47425;51.976;5.326;2023-03-25T01:08:37;99963.00;;;16.67;47.11
61554;BME280;47425;51.976;5.326;2023-03-25T01:11:03;99971.31;;;16.75;47.26
61554;BME280;47425;51.976;5.326;2023-03-25T01:13:31;99972.25;;;16.74;47.07
61554;BME280;47425;51.976;5.326;2023-03-25T01:15:58;99972.44;;;16.71;46.61
61554;BME280;47425;51.976;5.326;2023-03-25T01:18:24;99964.13;;;16.63;46.38
61554;BME280;47425;51.976;5.326;2023-03-25T01:20:50;99967.56;;;16.49;47.50
61554;BME280;47425;51.976;5.326;2023-03-25T01:23:19;99968.72;;;16.59;46.96
61554;BME280;47425;51.976;5.326;2023-03-25T01:25:46;99974.47;;;16.51;47.34
61554;BME280;47425;51.976;5.326;2023-03-25T01:28:14;99969.47;;;16.47;47.30
61554;BME280;47425;51.976;5.326;2023-03-25T01:30:41;99966.28;;;16.56;47.22
61554;BME280;47425;51.976;5.326;2023-03-25T01:33:08;99976.13;;;16.38;47.28
61554;BME280;47425;51.976;5.326;2023-03-25T01:35:34;99966.44;;;16.38;46.97
61554;BME280;47425;51.976;5.326;2023-03-25T01:38:01;99958.66;;;16.35;47.64
61554;BME280;47425;51.976;5.326;2023-03-25T01:40:29;99970.09;;;16.36;47.63
61554;BME280;47425;51.976;5.326;2023-03-25T01:42:57;99976.50;;;16.32;47.39
61554;BME280;47425;51.976;5.326;2023-03-25T01:45:25;99969.91;;;16.39;47.30
61554;BME280;47425;51.976;5.326;2023-03-25T01:47:54;99956.50;;;16.27;47.76
61554;BME280;47425;51.976;5.326;2023-03-25T01:50:23;99958.75;;;16.34;47.52
61554;BME280;47425;51.976;5.326;2023-03-25T01:52:53;99961.13;;;16.38;47.29
61554;BME280;47425;51.976;5.326;2023-03-25T01:55:21;99965.69;;;16.51;47.40
61554;BME280;47425;51.976;5.326;2023-03-25T01:57:49;99958.69;;;16.50;47.22
61554;BME280;47425;51.976;5.326;2023-03-25T02:00:19;99962.13;;;16.52;47.29
61554;BME280;47425;51.976;5.326;2023-03-25T02:02:47;99962.66;;;16.57;47.01
61554;BME280;47425;51.976;5.326;2023-03-25T02:05:17;99958.34;;;16.56;46.95
61554;BME280;47425;51.976;5.326;2023-03-25T02:07:46;99961.28;;;16.66;47.02
61554;BME280;47425;51.976;5.326;2023-03-25T02:10:14;99961.53;;;16.61;46.85
61554;BME280;47425;51.976;5.326;2023-03-25T02:12:42;99960.59;;;16.62;47.12
61554;BME280;47425;51.976;5.326;2023-03-25T02:15:12;99958.91;;;16.61;46.95
61554;BME280;47425;51.976;5.326;2023-03-25T02:17:44;99949.84;;;16.51;47.02
61554;BME280;47425;51.976;5.326;2023-03-25T02:20:18;99936.63;;;16.51;47.13
61554;BME280;47425;51.976;5.326;2023-03-25T02:28:20;99950.97;;;16.47;47.38
61554;BME280;47425;51.976;5.326;2023-03-25T02:39:17;99945.59;;;16.48;47.28
61554;BME280;47425;51.976;5.326;2023-03-25T02:41:49;99946.91;;;16.55;47.33
61554;BME280;47425;51.976;5.326;2023-03-25T02:44:22;99940.22;;;16.64;47.26
61554;BME280;47425;51.976;5.326;2023-03-25T02:46:50;99953.59;;;16.61;47.06
61554;BME280;47425;51.976;5.326;2023-03-25T02:49:22;99946.44;;;16.63;47.26
61554;BME280;47425;51.976;5.326;2023-03-25T02:51:51;99946.09;;;16.69;47.14
61554;BME280;47425;51.976;5.326;2023-03-25T02:54:21;99951.19;;;16.72;46.77
61554;BME280;47425;51.976;5.326;2023-03-25T02:56:50;99953.53;;;16.63;46.88
61554;BME280;47425;51.976;5.326;2023-03-25T02:59:22;99949.75;;;16.52;47.34
61554;BME280;47425;51.976;5.326;2023-03-25T03:01:50;99947.47;;;16.60;47.28
61554;BME280;47425;51.976;5.326;2023-03-25T03:04:22;99937.47;;;16.51;47.35
61554;BME280;47425;51.976;5.326;2023-03-25T03:06:50;99940.84;;;16.39;47.79
61554;BME280;47425;51.976;5.326;2023-03-25T03:09:21;99930.75;;;16.46;47.43
61554;BME280;47425;51.976;5.326;2023-03-25T03:11:55;99937.09;;;16.57;47.47
61554;BME280;47425;51.976;5.326;2023-03-25T03:17:11;99933.44;;;16.60;47.31
61554;BME280;47425;51.976;5.326;2023-03-25T03:19:44;99931.91;;;16.70;47.14
61554;BME280;47425;51.976;5.326;2023-03-25T03:22:13;99924.56;;;16.75;47.06
61554;BME280;47425;51.976;5.326;2023-03-25T03:24:49;99930.88;;;16.73;46.90
61554;BME280;47425;51.976;5.326;2023-03-25T03:27:21;99925.78;;;16.70;46.93
61554;BME280;47425;51.976;5.326;2023-03-25T03:30:01;99928.53;;;16.68;46.95
61554;BME280;47425;51.976;5.326;2023-03-25T03:32:31;99920.59;;;16.68;46.87
61554;BME280;47425;51.976;5.326;2023-03-25T03:35:23;99917.94;;;16.54;47.41
61554;BME280;47425;51.976;5.326;2023-03-25T03:37:54;99915.97;;;16.57;47.28
61554;BME280;47425;51.976;5.326;2023-03-25T03:40:24;99914.16;;;16.58;47.21
61554;BME280;47425;51.976;5.326;2023-03-25T03:42:54;99914.06;;;16.59;47.44
61554;BME280;47425;51.976;5.326;2023-03-25T03:45:23;99918.59;;;16.57;47.17
61554;BME280;47425;51.976;5.326;2023-03-25T03:47:53;99924.16;;;16.53;47.26
61554;BME280;47425;51.976;5.326;2023-03-25T03:50:22;99911.25;;;16.63;47.19
61554;BME280;47425;51.976;5.326;2023-03-25T03:52:51;99908.50;;;16.64;47.27
61554;BME280;47425;51.976;5.326;2023-03-25T03:55:27;99907.38;;;16.68;47.09
61554;BME280;47425;51.976;5.326;2023-03-25T03:57:58;99907.25;;;16.55;46.99
61554;BME280;47425;51.976;5.326;2023-03-25T04:00:47;99901.03;;;16.56;47.33
61554;BME280;47425;51.976;5.326;2023-03-25T04:03:16;99911.31;;;16.61;47.17
61554;BME280;47425;51.976;5.326;2023-03-25T04:05:51;99909.34;;;16.65;47.17
61554;BME280;47425;51.976;5.326;2023-03-25T04:08:21;99909.81;;;16.71;46.91
61554;BME280;47425;51.976;5.326;2023-03-25T04:10:56;99902.81;;;16.70;46.94
61554;BME280;47425;51.976;5.326;2023-03-25T04:13:26;99906.59;;;16.66;47.00
61554;BME280;47425;51.976;5.326;2023-03-25T04:15:55;99898.69;;;16.66;46.86
61554;BME280;47425;51.976;5.326;2023-03-25T04:18:23;99905.56;;;16.69;46.98
61554;BME280;47425;51.976;5.326;2023-03-25T04:20:50;99910.75;;;16.70;46.95
61554;BME280;47425;51.976;5.326;2023-03-25T04:23:16;99903.50;;;16.74;46.76
61554;BME280;47425;51.976;5.326;2023-03-25T04:25:42;99898.31;;;16.72;46.59
61554;BME280;47425;51.976;5.326;2023-03-25T04:28:14;99905.00;;;16.64;46.90
61554;BME280;47425;51.976;5.326;2023-03-25T04:30:41;99913.59;;;16.67;46.96
61554;BME280;47425;51.976;5.326;2023-03-25T04:33:09;99915.09;;;16.71;46.71
61554;BME280;47425;51.976;5.326;2023-03-25T04:35:36;99912.44;;;16.57;47.09
61554;BME280;47425;51.976;5.326;2023-03-25T04:38:05;99900.09;;;16.57;47.11
61554;BME280;47425;51.976;5.326;2023-03-25T04:40:31;99916.69;;;16.59;47.10
61554;BME280;47425;51.976;5.326;2023-03-25T04:42:58;99916.69;;;16.59;47.03
61554;BME280;47425;51.976;5.326;2023-03-25T04:45:27;99927.75;;;16.66;46.86
61554;BME280;47425;51.976;5.326;2023-03-25T04:47:54;99926.88;;;16.51;47.26
61554;BME280;47425;51.976;5.326;2023-03-25T04:50:23;99919.53;;;16.56;47.18
61554;BME280;47425;51.976;5.326;2023-03-25T04:52:50;99925.84;;;16.54;47.25
61554;BME280;47425;51.976;5.326;2023-03-25T04:55:18;99936.22;;;16.57;47.05
61554;BME280;47425;51.976;5.326;2023-03-25T04:57:45;99943.22;;;16.58;46.98
61554;BME280;47425;51.976;5.326;2023-03-25T05:00:12;99952.53;;;16.35;47.49
61554;BME280;47425;51.976;5.326;2023-03-25T05:02:45;99930.06;;;16.27;47.90
61554;BME280;47425;51.976;5.326;2023-03-25T05:05:13;99929.88;;;16.31;47.64
61554;BME280;47425;51.976;5.326;2023-03-25T05:07:42;99929.59;;;16.35;47.83
61554;BME280;47425;51.976;5.326;2023-03-25T05:10:09;99917.41;;;16.18;47.54
61554;BME280;47425;51.976;5.326;2023-03-25T05:12:37;99933.41;;;16.15;48.27
61554;BME280;47425;51.976;5.326;2023-03-25T05:15:04;99933.91;;;16.22;47.95
61554;BME280;47425;51.976;5.326;2023-03-25T05:17:31;99951.25;;;16.12;47.76
61554;BME280;47425;51.976;5.326;2023-03-25T05:20:00;99936.75;;;16.03;48.22
61554;BME280;47425;51.976;5.326;2023-03-25T05:22:31;99952.03;;;15.82;48.08
61554;BME280;47425;51.976;5.326;2023-03-25T05:24:57;99933.06;;;15.43;48.58
61554;BME280;47425;51.976;5.326;2023-03-25T05:27:26;99937.03;;;15.34;49.86
61554;BME280;47425;51.976;5.326;2023-03-25T05:29:55;99935.00;;;15.39;50.09
61554;BME280;47425;51.976;5.326;2023-03-25T05:32:22;99934.41;;;15.66;49.66
61554;BME280;47425;51.976;5.326;2023-03-25T05:34:50;99947.25;;;15.88;49.28
61554;BME280;47425;51.976;5.326;2023-03-25T05:37:18;99947.81;;;16.09;48.50
61554;BME280;47425;51.976;5.326;2023-03-25T05:39:46;99943.97;;;16.15;48.47
61554;BME280;47425;51.976;5.326;2023-03-25T05:42:12;99939.75;;;16.27;48.19
61554;BME280;47425;51.976;5.326;2023-03-25T05:44:39;99939.84;;;16.25;48.06
61554;BME280;47425;51.976;5.326;2023-03-25T05:47:12;99941.06;;;16.20;48.08
61554;BME280;47425;51.976;5.326;2023-03-25T05:49:38;99948.91;;;16.21;48.27
61554;BME280;47425;51.976;5.326;2023-03-25T05:52:06;99950.88;;;16.18;48.32
61554;BME280;47425;51.976;5.326;2023-03-25T05:54:34;99950.88;;;16.18;48.14
61554;BME280;47425;51.976;5.326;2023-03-25T05:57:04;99964.94;;;16.18;48.00
61554;BME280;47425;51.976;5.326;2023-03-25T05:59:30;99966.41;;;16.08;48.50
61554;BME280;47425;51.976;5.326;2023-03-25T06:01:57;99963.16;;;16.19;48.22
61554;BME280;47425;51.976;5.326;2023-03-25T06:04:24;99967.22;;;15.94;48.62
61554;BME280;47425;51.976;5.326;2023-03-25T06:06:51;99969.75;;;15.96;48.51
61554;BME280;47425;51.976;5.326;2023-03-25T06:09:18;99976.56;;;16.00;48.29
61554;BME280;47425;51.976;5.326;2023-03-25T06:11:46;99973.63;;;16.04;48.34
61554;BME280;47425;51.976;5.326;2023-03-25T06:14:18;99978.41;;;15.98;48.69
61554;BME280;47425;51.976;5.326;2023-03-25T06:16:50;99973.50;;;16.07;48.46
61554;BME280;47425;51.976;5.326;2023-03-25T06:19:17;99977.19;;;16.19;48.36
61554;BME280;47425;51.976;5.326;2023-03-25T06:21:43;99971.66;;;16.24;48.03
61554;BME280;47425;51.976;5.326;2023-03-25T06:24:14;99960.56;;;16.33;47.99
61554;BME280;47425;51.976;5.326;2023-03-25T06:26:41;99955.66;;;16.41;47.75
61554;BME280;47425;51.976;5.326;2023-03-25T06:29:08;99966.97;;;16.29;47.79
61554;BME280;47425;51.976;5.326;2023-03-25T06:31:35;99976.06;;;16.23;48.21
61554;BME280;47425;51.976;5.326;2023-03-25T06:34:02;99982.81;;;16.29;47.81
61554;BME280;47425;51.976;5.326;2023-03-25T06:36:29;99976.66;;;16.28;47.90
61554;BME280;47425;51.976;5.326;2023-03-25T06:38:56;99968.94;;;16.09;48.28
61554;BME280;47425;51.976;5.326;2023-03-25T06:41:24;99974.38;;;16.22;48.25
61554;BME280;47425;51.976;5.326;2023-03-25T06:44:12;99979.50;;;16.25;47.52
61554;BME280;47425;51.976;5.326;2023-03-25T06:47:04;99982.31;;;16.22;47.87
61554;BME280;47425;51.976;5.326;2023-03-25T06:49:47;99990.84;;;16.12;48.28
61554;BME280;47425;51.976;5.326;2023-03-25T06:52:15;99993.41;;;16.13;47.74
61554;BME280;47425;51.976;5.326;2023-03-25T06:54:41;99997.94;;;15.95;48.21
61554;BME280;47425;51.976;5.326;2023-03-25T06:57:08;100003.47;;;15.90;48.70
61554;BME280;47425;51.976;5.326;2023-03-25T06:59:36;99998.63;;;15.99;48.32
61554;BME280;47425;51.976;5.326;2023-03-25T07:02:03;99996.41;;;15.91;48.79
61554;BME280;47425;51.976;5.326;2023-03-25T07:04:30;99998.81;;;15.96;48.23
61554;BME280;47425;51.976;5.326;2023-03-25T07:06:56;99997.69;;;15.84;48.85
61554;BME280;47425;51.976;5.326;2023-03-25T07:09:24;100002.56;;;15.91;48.65
61554;BME280;47425;51.976;5.326;2023-03-25T07:11:51;100006.03;;;16.08;48.58
61554;BME280;47425;51.976;5.326;2023-03-25T07:14:17;99995.03;;;16.16;48.06
61554;BME280;47425;51.976;5.326;2023-03-25T07:16:46;100009.56;;;16.23;48.13
61554;BME280;47425;51.976;5.326;2023-03-25T07:19:13;99999.13;;;16.05;48.49
61554;BME280;47425;51.976;5.326;2023-03-25T07:21:40;99992.38;;;16.16;48.15
61554;BME280;47425;51.976;5.326;2023-03-25T07:24:06;99996.19;;;16.10;48.38
61554;BME280;47425;51.976;5.326;2023-03-25T07:26:47;100003.59;;;16.19;48.31
61554;BME280;47425;51.976;5.326;2023-03-25T07:29:18;100008.22;;;16.32;47.90
61554;BME280;47425;51.976;5.326;2023-03-25T07:31:45;100002.06;;;16.31;48.22
61554;BME280;47425;51.976;5.326;2023-03-25T07:34:12;100014.53;;;16.43;47.59
61554;BME280;47425;51.976;5.326;2023-03-25T07:36:40;100007.78;;;16.54;47.44
61554;BME280;47425;51.976;5.326;2023-03-25T07:39:06;100012.34;;;16.66;47.13
61554;BME280;47425;51.976;5.326;2023-03-25T07:41:34;100004.91;;;16.73;47.13
61554;BME280;47425;51.976;5.326;2023-03-25T07:44:08;100002.66;;;16.67;46.99
61554;BME280;47425;51.976;5.326;2023-03-25T07:46:36;100014.53;;;16.74;46.84
61554;BME280;47425;51.976;5.326;2023-03-25T07:49:04;100017.38;;;16.71;46.82
61554;BME280;47425;51.976;5.326;2023-03-25T07:51:31;100014.97;;;16.52;47.35
61554;BME280;47425;51.976;5.326;2023-03-25T07:54:19;100010.81;;;16.62;47.07
61554;BME280;47425;51.976;5.326;2023-03-25T07:56:47;100019.94;;;16.72;46.96
61554;BME280;47425;51.976;5.326;2023-03-25T07:59:15;100015.97;;;16.80;46.93
61554;BME280;47425;51.976;5.326;2023-03-25T08:01:41;100015.66;;;16.70;46.94
61554;BME280;47425;51.976;5.326;2023-03-25T08:04:10;100016.59;;;16.69;46.90
61554;BME280;47425;51.976;5.326;2023-03-25T08:06:38;100017.88;;;16.77;46.81
61554;BME280;47425;51.976;5.326;2023-03-25T08:09:04;100015.88;;;16.81;46.65
61554;BME280;47425;51.976;5.326;2023-03-25T08:11:32;100027.66;;;16.75;46.71
61554;BME280;47425;51.976;5.326;2023-03-25T08:13:59;100028.41;;;16.63;46.98
61554;BME280;47425;51.976;5.326;2023-03-25T08:16:26;100029.38;;;16.46;47.37
61554;BME280;47425;51.976;5.326;2023-03-25T08:18:52;100022.56;;;16.42;47.50
61554;BME280;47425;51.976;5.326;2023-03-25T08:21:21;100031.38;;;16.42;47.49
61554;BME280;47425;51.976;5.326;2023-03-25T08:23:49;100038.81;;;16.50;47.50
61554;BME280;47425;51.976;5.326;2023-03-25T08:26:16;100032.50;;;16.53;47.31
61554;BME280;47425;51.976;5.326;2023-03-25T08:28:42;100038.47;;;16.56;47.18
61554;BME280;47425;51.976;5.326;2023-03-25T08:31:12;100028.31;;;16.65;46.78
61554;BME280;47425;51.976;5.326;2023-03-25T08:33:39;100029.78;;;16.54;47.32
61554;BME280;47425;51.976;5.326;2023-03-25T08:36:07;100031.84;;;16.49;47.24
61554;BME280;47425;51.976;5.326;2023-03-25T08:38:39;100036.78;;;16.55;47.38
61554;BME280;47425;51.976;5.326;2023-03-25T08:41:07;100035.00;;;16.56;46.91
61554;BME280;47425;51.976;5.326;2023-03-25T08:43:34;100037.81;;;16.53;47.40
61554;BME280;47425;51.976;5.326;2023-03-25T08:46:00;100042.28;;;16.36;47.51
61554;BME280;47425;51.976;5.326;2023-03-25T08:48:27;100039.06;;;16.15;47.92
61554;BME280;47425;51.976;5.326;2023-03-25T08:50:53;100029.47;;;15.98;48.51
61554;BME280;47425;51.976;5.326;2023-03-25T08:53:20;100028.88;;;16.09;48.45
61554;BME280;47425;51.976;5.326;2023-03-25T08:55:50;100033.63;;;16.18;48.25
61554;BME280;47425;51.976;5.326;2023-03-25T08:58:18;100040.63;;;16.50;47.61
61554;BME280;47425;51.976;5.326;2023-03-25T09:00:45;100039.06;;;16.61;47.46
61554;BME280;47425;51.976;5.326;2023-03-25T09:03:11;100046.56;;;16.69;47.08
61554;BME280;47425;51.976;5.326;2023-03-25T09:05:38;100047.34;;;16.55;47.31
61554;BME280;47425;51.976;5.326;2023-03-25T09:08:06;100045.31;;;16.44;47.85
61554;BME280;47425;51.976;5.326;2023-03-25T09:10:33;100040.03;;;16.44;47.76
61554;BME280;47425;51.976;5.326;2023-03-25T09:13:01;100043.81;;;16.40;47.62
61554;BME280;47425;51.976;5.326;2023-03-25T09:15:29;100054.25;;;16.27;48.00
61554;BME280;47425;51.976;5.326;2023-03-25T09:17:56;100052.88;;;16.20;48.29
61554;BME280;47425;51.976;5.326;2023-03-25T09:20:22;100046.75;;;16.20;48.11
61554;BME280;47425;51.976;5.326;2023-03-25T09:22:49;100044.00;;;16.21;48.43
61554;BME280;47425;51.976;5.326;2023-03-25T09:25:17;100052.97;;;16.19;48.38
61554;BME280;47425;51.976;5.326;2023-03-25T09:27:43;100064.53;;;16.32;48.16
61554;BME280;47425;51.976;5.326;2023-03-25T09:30:11;100057.63;;;16.30;48.08
61554;BME280;47425;51.976;5.326;2023-03-25T09:32:39;100061.50;;;16.08;48.44
61554;BME280;47425;51.976;5.326;2023-03-25T09:35:07;100046.75;;;15.88;48.91
61554;BME280;47425;51.976;5.326;2023-03-25T09:37:33;100057.91;;;16.09;48.79
61554;BME280;47425;51.976;5.326;2023-03-25T09:40:00;100058.56;;;16.28;48.40
61554;BME280;47425;51.976;5.326;2023-03-25T09:42:29;100059.34;;;16.15;48.51
61554;BME280;47425;51.976;5.326;2023-03-25T09:45:02;100057.81;;;15.94;48.91
61554;BME280;47425;51.976;5.326;2023-03-25T09:47:34;100047.25;;;16.10;49.01
61554;BME280;47425;51.976;5.326;2023-03-25T09:50:02;100056.53;;;16.02;48.59
61554;BME280;47425;51.976;5.326;2023-03-25T09:52:35;100054.91;;;15.99;48.99
61554;BME280;47425;51.976;5.326;2023-03-25T09:55:03;100062.22;;;16.10;48.71
61554;BME280;47425;51.976;5.326;2023-03-25T09:57:30;100053.13;;;16.16;48.54
61554;BME280;47425;51.976;5.326;2023-03-25T10:00:03;100052.19;;;16.17;48.49
61554;BME280;47425;51.976;5.326;2023-03-25T10:02:32;100055.06;;;16.28;48.42
61554;BME280;47425;51.976;5.326;2023-03-25T10:05:08;100058.84;;;16.24;48.47
61554;BME280;47425;51.976;5.326;2023-03-25T10:07:41;100052.84;;;16.36;48.29
61554;BME280;47425;51.976;5.326;2023-03-25T10:10:13;100076.59;;;16.52;47.87
61554;BME280;47425;51.976;5.326;2023-03-25T10:12:46;100053.34;;;16.43;48.09
61554;BME280;47425;51.976;5.326;2023-03-25T10:15:20;100075.38;;;16.27;48.63
61554;BME280;47425;51.976;5.326;2023-03-25T10:17:56;100076.44;;;16.39;48.25
61554;BME280;47425;51.976;5.326;2023-03-25T10:20:33;100070.91;;;16.44;48.33
61554;BME280;47425;51.976;5.326;2023-03-25T10:23:06;100081.56;;;16.42;48.21
61554;BME280;47425;51.976;5.326;2023-03-25T10:25:38;100085.38;;;16.53;48.26
61554;BME280;47425;51.976;5.326;2023-03-25T10:28:09;100090.81;;;16.66;47.62
61554;BME280;47425;51.976;5.326;2023-03-25T10:30:41;100089.47;;;16.58;47.92
61554;BME280;47425;51.976;5.326;2023-03-25T10:33:13;100097.91;;;16.65;47.79
61554;BME280;47425;51.976;5.326;2023-03-25T10:35:43;100094.22;;;16.68;47.66
61554;BME280;47425;51.976;5.326;2023-03-25T10:38:32;100088.22;;;16.80;47.42
61554;BME280;47425;51.976;5.326;2023-03-25T10:41:04;100091.16;;;16.59;47.44
61554;BME280;47425;51.976;5.326;2023-03-25T10:43:38;100083.44;;;16.40;48.32
61554;BME280;47425;51.976;5.326;2023-03-25T10:46:07;100085.56;;;16.50;48.27
61554;BME280;47425;51.976;5.326;2023-03-25T10:48:38;100086.66;;;16.61;47.91
61554;BME280;47425;51.976;5.326;2023-03-25T10:51:07;100098.16;;;16.60;47.50
61554;BME280;47425;51.976;5.326;2023-03-25T10:53:35;100092.47;;;16.52;48.15
61554;BME280;47425;51.976;5.326;2023-03-25T10:56:03;100099.34;;;16.71;47.69
61554;BME280;47425;51.976;5.326;2023-03-25T10:58:30;100103.50;;;16.75;47.60
61554;BME280;47425;51.976;5.326;2023-03-25T11:00:58;100103.31;;;16.78;47.37
61554;BME280;47425;51.976;5.326;2023-03-25T11:03:25;100100.28;;;16.70;47.30
61554;BME280;47425;51.976;5.326;2023-03-25T11:05:56;100104.28;;;16.61;47.82
61554;BME280;47425;51.976;5.326;2023-03-25T11:08:24;100109.16;;;16.53;47.80
61554;BME280;47425;51.976;5.326;2023-03-25T11:10:51;100130.25;;;16.38;48.07
61554;BME280;47425;51.976;5.326;2023-03-25T11:13:23;100113.72;;;16.35;47.84
61554;BME280;47425;51.976;5.326;2023-03-25T11:15:51;100121.56;;;16.36;47.94
61554;BME280;47425;51.976;5.326;2023-03-25T11:18:19;100128.03;;;16.15;48.16
61554;BME280;47425;51.976;5.326;2023-03-25T11:20:48;100142.59;;;16.22;47.92
61554;BME280;47425;51.976;5.326;2023-03-25T11:23:18;100124.69;;;16.43;48.42
61554;BME280;47425;51.976;5.326;2023-03-25T11:25:47;100129.34;;;16.70;48.03
61554;BME280;47425;51.976;5.326;2023-03-25T11:28:16;100130.59;;;16.94;46.94
61554;BME280;47425;51.976;5.326;2023-03-25T11:31:06;100137.84;;;17.07;47.04
61554;BME280;47425;51.976;5.326;2023-03-25T11:33:34;100133.34;;;17.23;46.57
61554;BME280;47425;51.976;5.326;2023-03-25T11:38:52;100132.06;;;17.15;46.45
61554;BME280;47425;51.976;5.326;2023-03-25T11:41:23;100125.34;;;17.09;46.25
61554;BME280;47425;51.976;5.326;2023-03-25T11:43:54;100128.03;;;16.93;46.79
61554;BME280;47425;51.976;5.326;2023-03-25T11:46:21;100129.13;;;17.05;47.03
61554;BME280;47425;51.976;5.326;2023-03-25T11:48:49;100128.44;;;17.01;46.98
61554;BME280;47425;51.976;5.326;2023-03-25T11:51:18;100116.75;;;17.05;46.67
61554;BME280;47425;51.976;5.326;2023-03-25T11:53:45;100122.03;;;17.05;46.75
61554;BME280;47425;51.976;5.326;2023-03-25T11:56:14;100121.88;;;17.08;46.72
61554;BME280;47425;51.976;5.326;2023-03-25T11:58:47;100116.34;;;16.97;47.04
61554;BME280;47425;51.976;5.326;2023-03-25T12:01:19;100117.59;;;17.06;46.91
61554;BME280;47425;51.976;5.326;2023-03-25T12:03:47;100110.91;;;17.15;46.42
61554;BME280;47425;51.976;5.326;2023-03-25T12:06:16;100114.50;;;17.14;46.55
61554;BME280;47425;51.976;5.326;2023-03-25T12:08:48;100107.03;;;17.06;46.66
61554;BME280;47425;51.976;5.326;2023-03-25T12:11:15;100118.84;;;16.84;46.66
61554;BME280;47425;51.976;5.326;2023-03-25T12:13:50;100120.16;;;16.61;46.86
61554;BME280;47425;51.976;5.326;2023-03-25T12:16:22;100115.06;;;16.42;47.40
61554;BME280;47425;51.976;5.326;2023-03-25T12:19:15;100124.69;;;16.43;47.66
61554;BME280;47425;51.976;5.326;2023-03-25T12:21:58;100120.13;;;16.31;47.26
61554;BME280;47425;51.976;5.326;2023-03-25T12:24:32;100127.00;;;16.33;47.87
61554;BME280;47425;51.976;5.326;2023-03-25T12:27:10;100121.88;;;16.46;48.01
61554;BME280;47425;51.976;5.326;2023-03-25T12:29:45;100118.50;;;16.74;47.81
61554;BME280;47425;51.976;5.326;2023-03-25T12:32:19;100122.31;;;16.85;47.43
61554;BME280;47425;51.976;5.326;2023-03-25T12:34:55;100106.38;;;16.86;46.63
61554;BME280;47425;51.976;5.326;2023-03-25T12:37:28;100103.63;;;16.88;47.20
61554;BME280;47425;51.976;5.326;2023-03-25T12:42:45;100109.63;;;16.91;46.65
61554;BME280;47425;51.976;5.326;2023-03-25T12:45:23;100107.75;;;16.93;46.83
61554;BME280;47425;51.976;5.326;2023-03-25T12:47:55;100106.47;;;16.85;46.62
61554;BME280;47425;51.976;5.326;2023-03-25T12:50:25;100114.84;;;16.77;46.98
61554;BME280;47425;51.976;5.326;2023-03-25T12:52:58;100118.28;;;16.63;46.72
61554;BME280;47425;51.976;5.326;2023-03-25T12:55:33;100118.81;;;16.54;47.56
61554;BME280;47425;51.976;5.326;2023-03-25T12:58:09;100116.44;;;16.49;46.93
61554;BME280;47425;51.976;5.326;2023-03-25T13:00:45;100120.59;;;16.53;46.66
61554;BME280;47425;51.976;5.326;2023-03-25T13:03:22;100123.44;;;16.81;47.69
61554;BME280;47425;51.976;5.326;2023-03-25T13:05:56;100141.66;;;17.01;46.22
61554;BME280;47425;51.976;5.326;2023-03-25T13:08:26;100126.00;;;16.82;46.82
61554;BME280;47425;51.976;5.326;2023-03-25T13:10:55;100140.25;;;16.80;46.34
61554;BME280;47425;51.976;5.326;2023-03-25T13:13:23;100135.22;;;16.75;46.76
61554;BME280;47425;51.976;5.326;2023-03-25T13:15:54;100137.81;;;16.60;46.75
61554;BME280;47425;51.976;5.326;2023-03-25T13:18:27;100137.41;;;16.52;47.05
61554;BME280;47425;51.976;5.326;2023-03-25T13:20:59;100139.66;;;16.74;47.33
61554;BME280;47425;51.976;5.326;2023-03-25T13:23:27;100142.84;;;16.65;46.52
61554;BME280;47425;51.976;5.326;2023-03-25T13:25:55;100151.13;;;16.59;46.83
61554;BME280;47425;51.976;5.326;2023-03-25T13:28:26;100148.38;;;16.60;47.34
61554;BME280;47425;51.976;5.326;2023-03-25T13:30:55;100151.63;;;16.50;46.95